Horace A — 9HA3885 — position and weather

sailwx.info

Track history (hours):
 
Tides and Currents Weather Stations Pressure Air Temp Water Temp Dewpoint Dewpoint Depression Visibility Wind Speed Wind Dir Waves Ship Positions

Horace A

Last reported at 2017-Sep-25 01:10 UTC. Time now 2017-Sep-25 09:57 UTC.
Position N 39°48' E 023°59'.

Length 222 m; draft 10.8 m.

Type: Cargo ship. MMSI: 256318000.

Date/timePositionNaut miles runAvg speedWind from/ knotsBaromVisibWave heightAir tempDewpointWater temp
2017-Sep-25 01:10N 39°48' E 023°59'414.9
2017-Sep-25 00:56N 39°47' E 024°04'3315.5
2017-Sep-24 22:47N 39°45' E 024°47'515.2
2017-Sep-24 22:27N 39°44' E 024°54'  
2017-Sep-20 22:50N 40°01' E 026°09'410.4
2017-Sep-20 22:28N 39°60' E 026°04'510.4
2017-Sep-20 21:59N 39°57' E 025°59'810.7
2017-Sep-20 21:16N 39°50' E 025°53'8511.3
2017-Sep-20 13:45N 38°36' E 025°01'911.3
2017-Sep-20 12:57N 38°27' E 024°56'511.4
2017-Sep-20 12:30N 38°23' E 024°54'1011.6
2017-Sep-20 11:40N 38°14' E 024°48'211.9
2017-Sep-20 11:27N 38°12' E 024°47'3411.7
2017-Sep-20 08:33N 37°40' E 024°30'111.6
2017-Sep-20 08:29N 37°40' E 024°30'3211.4
2017-Sep-20 05:42N 37°16' E 024°03'411.4
2017-Sep-20 05:22N 37°14' E 023°60'411.5
2017-Sep-20 05:00N 37°11' E 023°56'611.7
2017-Sep-20 04:30N 37°07' E 023°50'611.7
2017-Sep-20 04:00N 37°02' E 023°46'611.7
2017-Sep-20 03:30N 36°58' E 023°41'611.6
2017-Sep-20 03:00N 36°54' E 023°36'611.4
2017-Sep-20 02:30N 36°49' E 023°32'611.4
2017-Sep-20 02:00N 36°44' E 023°28'611.4
2017-Sep-20 01:30N 36°40' E 023°24'611.3
2017-Sep-20 01:00N 36°35' E 023°20'511.0
2017-Sep-20 00:30N 36°30' E 023°17'510.8
2017-Sep-20 00:00N 36°25' E 023°14'361 9.5
2017-Sep-18 09:52N 36°26' E 015°45'2414.9
2017-Sep-18 08:17N 36°27' E 015°15'414.9
2017-Sep-18 08:01N 36°27' E 015°10'815.3
2017-Sep-18 07:30N 36°27' E 015°00'1015.1
2017-Sep-18 06:49N 36°31' E 014°48'514.9
2017-Sep-18 06:30N 36°33' E 014°43'715.0
2017-Sep-18 06:00N 36°36' E 014°35'715.1
2017-Sep-18 05:30N 36°39' E 014°26'815.3
2017-Sep-18 05:00N 36°42' E 014°17'815.3
2017-Sep-18 04:30N 36°46' E 014°09'715.0
2017-Sep-18 04:00N 36°48' E 014°00'815.6
2017-Sep-18 03:30N 36°52' E 013°51'815.6
2017-Sep-18 03:01N 36°55' E 013°43'815.8
2017-Sep-18 02:31N 36°59' E 013°34'815.5
2017-Sep-18 01:59N 37°02' E 013°25'1015.5
2017-Sep-18 01:21N 37°06' E 013°13'615.7
2017-Sep-18 00:58N 37°09' E 013°07'715.6
2017-Sep-18 00:30N 37°12' E 012°58'3015.3
2017-Sep-17 22:33N 37°26' E 012°26'110.6
2017-Sep-17 22:29N 37°27' E 012°25'1113.8
2017-Sep-17 21:41N 37°33' E 012°13'3 7.9
2017-Sep-17 21:21N 37°35' E 012°11'16915.0
2017-Sep-17 10:09N 38°36' E 008°51'215.1
2017-Sep-17 09:59N 38°37' E 008°49'815.3
2017-Sep-17 09:30N 38°39' E 008°39'27215.1
2017-Sep-16 15:34N 42°30' E 005°31'115.2
2017-Sep-16 15:30N 42°31' E 005°30'715.3
2017-Sep-16 15:01N 42°37' E 005°25'815.3
2017-Sep-16 14:30N 42°44' E 005°20'815.3
2017-Sep-16 14:00N 42°51' E 005°16'815.9
2017-Sep-16 13:31N 42°58' E 005°11'815.8
2017-Sep-16 13:00N 43°05' E 005°06'815.5
2017-Sep-16 12:30N 43°12' E 005°01'815.5
2017-Sep-16 12:00N 43°19' E 004°59'510.2
2017-Sep-16 11:30N 43°24' E 004°55'4 7.4
2017-Sep-16 10:59N 43°25' E 004°50'0 0.0
2017-Sep-16 10:30N 43°25' E 004°50'0 0.0
2017-Sep-16 09:59N 43°25' E 004°50'0 0.0
2017-Sep-16 09:30N 43°25' E 004°50'0 0.0
2017-Sep-16 09:00N 43°25' E 004°50'0 0.0
2017-Sep-16 08:30N 43°25' E 004°50'0 0.0
2017-Sep-16 08:00N 43°25' E 004°50'0 0.0
2017-Sep-16 07:30N 43°25' E 004°50'0 0.0
2017-Sep-16 07:00N 43°25' E 004°50'0 0.0
2017-Sep-16 06:29N 43°25' E 004°50'0 0.0
2017-Sep-16 06:00N 43°25' E 004°50'0 0.0
2017-Sep-16 05:29N 43°25' E 004°50'0 0.0
2017-Sep-16 04:59N 43°25' E 004°50'0 0.0
2017-Sep-16 04:29N 43°25' E 004°50'0 0.0
2017-Sep-16 03:53N 43°25' E 004°50'0 0.0
2017-Sep-16 03:29N 43°25' E 004°50'0 0.0
2017-Sep-16 02:59N 43°25' E 004°50'0 0.0
2017-Sep-16 02:30N 43°25' E 004°50'0 0.0
2017-Sep-16 01:59N 43°25' E 004°50'0 0.0
2017-Sep-16 01:29N 43°25' E 004°50'0 0.0
2017-Sep-16 01:00N 43°25' E 004°50'0 0.0
2017-Sep-16 00:30N 43°25' E 004°50'0 0.0
2017-Sep-15 23:59N 43°25' E 004°50'0 0.0
2017-Sep-15 23:30N 43°25' E 004°50'0 0.0
2017-Sep-15 22:59N 43°25' E 004°50'0 0.0
2017-Sep-15 22:30N 43°25' E 004°50'0 0.3
2017-Sep-15 22:00N 43°25' E 004°50'2 3.4
2017-Sep-15 21:30N 43°24' E 004°52'510.1
2017-Sep-15 21:00N 43°22' E 004°58'4 7.7
2017-Sep-15 20:30N 43°18' E 004°60'4 7.8
2017-Sep-15 20:00N 43°14' E 005°02'4 8.2
2017-Sep-15 19:30N 43°10' E 005°03'4 8.7
2017-Sep-15 19:01N 43°07' E 004°59'510.9
2017-Sep-15 18:30N 43°03' E 004°55'816.1
2017-Sep-15 18:00N 42°56' E 004°48'815.9
2017-Sep-15 17:31N 42°50' E 004°41'815.9
2017-Sep-15 17:00N 42°45' E 004°32'815.6
2017-Sep-15 16:30N 42°39' E 004°25'  
Track history (hours):
 
Tides and Currents Weather Stations Pressure Air Temp Water Temp Dewpoint Dewpoint Depression Visibility Wind Speed Wind Dir Waves Ship Positions

Horace A

Last reported at 2017-Sep-25 01:10 UTC. Time now 2017-Sep-25 09:57 UTC.
Position N 39°48' E 023°59'.

Length 222 m; draft 10.8 m.

Type: Cargo ship. MMSI: 256318000.

Date/timePositionNaut miles runAvg speedWind from/ knotsBaromVisibWave heightAir tempDewpointWater temp
2017-Sep-25 01:10N 39°48' E 023°59'414.9
2017-Sep-25 00:56N 39°47' E 024°04'3315.5
2017-Sep-24 22:47N 39°45' E 024°47'515.2
2017-Sep-24 22:27N 39°44' E 024°54'  
2017-Sep-20 22:50N 40°01' E 026°09'410.4
2017-Sep-20 22:28N 39°60' E 026°04'510.4
2017-Sep-20 21:59N 39°57' E 025°59'810.7
2017-Sep-20 21:16N 39°50' E 025°53'8511.3
2017-Sep-20 13:45N 38°36' E 025°01'911.3
2017-Sep-20 12:57N 38°27' E 024°56'511.4
2017-Sep-20 12:30N 38°23' E 024°54'1011.6
2017-Sep-20 11:40N 38°14' E 024°48'211.9
2017-Sep-20 11:27N 38°12' E 024°47'3411.7
2017-Sep-20 08:33N 37°40' E 024°30'111.6
2017-Sep-20 08:29N 37°40' E 024°30'3211.4
2017-Sep-20 05:42N 37°16' E 024°03'411.4
2017-Sep-20 05:22N 37°14' E 023°60'411.5
2017-Sep-20 05:00N 37°11' E 023°56'611.7
2017-Sep-20 04:30N 37°07' E 023°50'611.7
2017-Sep-20 04:00N 37°02' E 023°46'611.7
2017-Sep-20 03:30N 36°58' E 023°41'611.6
2017-Sep-20 03:00N 36°54' E 023°36'611.4
2017-Sep-20 02:30N 36°49' E 023°32'611.4
2017-Sep-20 02:00N 36°44' E 023°28'611.4
2017-Sep-20 01:30N 36°40' E 023°24'611.3
2017-Sep-20 01:00N 36°35' E 023°20'511.0
2017-Sep-20 00:30N 36°30' E 023°17'510.8
2017-Sep-20 00:00N 36°25' E 023°14'361 9.5
2017-Sep-18 09:52N 36°26' E 015°45'2414.9
2017-Sep-18 08:17N 36°27' E 015°15'414.9
2017-Sep-18 08:01N 36°27' E 015°10'815.3
2017-Sep-18 07:30N 36°27' E 015°00'1015.1
2017-Sep-18 06:49N 36°31' E 014°48'514.9
2017-Sep-18 06:30N 36°33' E 014°43'715.0
2017-Sep-18 06:00N 36°36' E 014°35'715.1
2017-Sep-18 05:30N 36°39' E 014°26'815.3
2017-Sep-18 05:00N 36°42' E 014°17'815.3
2017-Sep-18 04:30N 36°46' E 014°09'715.0
2017-Sep-18 04:00N 36°48' E 014°00'815.6
2017-Sep-18 03:30N 36°52' E 013°51'815.6
2017-Sep-18 03:01N 36°55' E 013°43'815.8
2017-Sep-18 02:31N 36°59' E 013°34'815.5
2017-Sep-18 01:59N 37°02' E 013°25'1015.5
2017-Sep-18 01:21N 37°06' E 013°13'615.7
2017-Sep-18 00:58N 37°09' E 013°07'715.6
2017-Sep-18 00:30N 37°12' E 012°58'3015.3
2017-Sep-17 22:33N 37°26' E 012°26'110.6
2017-Sep-17 22:29N 37°27' E 012°25'1113.8
2017-Sep-17 21:41N 37°33' E 012°13'3 7.9
2017-Sep-17 21:21N 37°35' E 012°11'16915.0
2017-Sep-17 10:09N 38°36' E 008°51'215.1
2017-Sep-17 09:59N 38°37' E 008°49'815.3
2017-Sep-17 09:30N 38°39' E 008°39'27215.1
2017-Sep-16 15:34N 42°30' E 005°31'115.2
2017-Sep-16 15:30N 42°31' E 005°30'715.3
2017-Sep-16 15:01N 42°37' E 005°25'815.3
2017-Sep-16 14:30N 42°44' E 005°20'815.3
2017-Sep-16 14:00N 42°51' E 005°16'815.9
2017-Sep-16 13:31N 42°58' E 005°11'815.8
2017-Sep-16 13:00N 43°05' E 005°06'815.5
2017-Sep-16 12:30N 43°12' E 005°01'815.5
2017-Sep-16 12:00N 43°19' E 004°59'510.2
2017-Sep-16 11:30N 43°24' E 004°55'4 7.4
2017-Sep-16 10:59N 43°25' E 004°50'0 0.0
2017-Sep-16 10:30N 43°25' E 004°50'0 0.0
2017-Sep-16 09:59N 43°25' E 004°50'0 0.0
2017-Sep-16 09:30N 43°25' E 004°50'0 0.0
2017-Sep-16 09:00N 43°25' E 004°50'0 0.0
2017-Sep-16 08:30N 43°25' E 004°50'0 0.0
2017-Sep-16 08:00N 43°25' E 004°50'0 0.0
2017-Sep-16 07:30N 43°25' E 004°50'0 0.0
2017-Sep-16 07:00N 43°25' E 004°50'0 0.0
2017-Sep-16 06:29N 43°25' E 004°50'0 0.0
2017-Sep-16 06:00N 43°25' E 004°50'0 0.0
2017-Sep-16 05:29N 43°25' E 004°50'0 0.0
2017-Sep-16 04:59N 43°25' E 004°50'0 0.0
2017-Sep-16 04:29N 43°25' E 004°50'0 0.0
2017-Sep-16 03:53N 43°25' E 004°50'0 0.0
2017-Sep-16 03:29N 43°25' E 004°50'0 0.0
2017-Sep-16 02:59N 43°25' E 004°50'0 0.0
2017-Sep-16 02:30N 43°25' E 004°50'0 0.0
2017-Sep-16 01:59N 43°25' E 004°50'0 0.0
2017-Sep-16 01:29N 43°25' E 004°50'0 0.0
2017-Sep-16 01:00N 43°25' E 004°50'0 0.0
2017-Sep-16 00:30N 43°25' E 004°50'0 0.0
2017-Sep-15 23:59N 43°25' E 004°50'0 0.0
2017-Sep-15 23:30N 43°25' E 004°50'0 0.0
2017-Sep-15 22:59N 43°25' E 004°50'0 0.0
2017-Sep-15 22:30N 43°25' E 004°50'0 0.3
2017-Sep-15 22:00N 43°25' E 004°50'2 3.4
2017-Sep-15 21:30N 43°24' E 004°52'510.1
2017-Sep-15 21:00N 43°22' E 004°58'4 7.7
2017-Sep-15 20:30N 43°18' E 004°60'4 7.8
2017-Sep-15 20:00N 43°14' E 005°02'4 8.2
2017-Sep-15 19:30N 43°10' E 005°03'4 8.7
2017-Sep-15 19:01N 43°07' E 004°59'510.9
2017-Sep-15 18:30N 43°03' E 004°55'816.1
2017-Sep-15 18:00N 42°56' E 004°48'815.9
2017-Sep-15 17:31N 42°50' E 004°41'815.9
2017-Sep-15 17:00N 42°45' E 004°32'815.6
2017-Sep-15 16:30N 42°39' E 004°25'  

Dump ship's entire track history